createdAt,value
2019-03-17T00:00:11.237Z,992.16
2019-03-17T00:01:12.290Z,992.17
2019-03-17T00:02:11.206Z,992.15
2019-03-17T00:03:11.193Z,992.13
2019-03-17T00:04:11.187Z,992.09
2019-03-17T00:05:11.174Z,992.11
2019-03-17T00:06:11.161Z,992.10
2019-03-17T00:07:11.180Z,992.09
2019-03-17T00:08:11.138Z,992.14
2019-03-17T00:09:11.133Z,992.10
2019-03-17T00:10:11.122Z,992.09
2019-03-17T00:11:11.105Z,992.11
2019-03-17T00:12:11.100Z,992.09
2019-03-17T00:13:11.118Z,992.06
2019-03-17T00:14:11.075Z,992.12
2019-03-17T00:15:11.059Z,992.13
2019-03-17T00:16:11.048Z,992.05
2019-03-17T00:17:11.043Z,992.04
2019-03-17T00:18:11.030Z,992.04
2019-03-17T00:19:11.052Z,992.05
2019-03-17T00:20:11.015Z,992.01
2019-03-17T00:21:11.005Z,992.00
2019-03-17T00:22:10.990Z,992.05
2019-03-17T00:23:10.978Z,992.14
2019-03-17T00:24:10.970Z,992.08
2019-03-17T00:25:10.984Z,992.10
2019-03-17T00:26:10.943Z,992.08
2019-03-17T00:27:10.966Z,992.09
2019-03-17T00:28:10.916Z,992.08
2019-03-17T00:29:10.912Z,992.04
2019-03-17T00:30:10.898Z,992.10
2019-03-17T00:31:22.901Z,992.03
2019-03-17T00:32:10.910Z,992.02
2019-03-17T00:33:10.866Z,992.00
2019-03-17T00:34:11.503Z,991.99
2019-03-17T00:35:10.843Z,991.97
2019-03-17T00:36:10.834Z,992.01
2019-03-17T00:37:10.832Z,991.98
2019-03-17T00:38:10.841Z,992.00
2019-03-17T00:39:10.802Z,991.98
2019-03-17T00:40:10.791Z,992.01
2019-03-17T00:41:10.777Z,991.99
2019-03-17T00:42:10.766Z,991.96
2019-03-17T00:43:10.758Z,992.02
2019-03-17T00:44:10.766Z,991.97
2019-03-17T00:45:11.665Z,992.03
2019-03-17T00:46:13.496Z,992.03
2019-03-17T00:47:10.998Z,992.01
2019-03-17T00:48:10.703Z,992.02
2019-03-17T00:49:10.688Z,992.02
2019-03-17T00:50:10.681Z,992.03
2019-03-17T00:51:10.672Z,992.02
2019-03-17T00:52:10.665Z,992.02
2019-03-17T00:53:10.692Z,991.99
2019-03-17T00:54:10.632Z,992.01
2019-03-17T00:55:10.618Z,991.96
2019-03-17T00:56:10.611Z,991.98
2019-03-17T00:57:10.607Z,991.94
2019-03-17T00:58:10.588Z,992.00
2019-03-17T00:59:11.494Z,991.99
2019-03-17T01:00:10.570Z,991.96
2019-03-17T01:01:10.556Z,992.01
2019-03-17T01:02:10.577Z,991.95
2019-03-17T01:03:10.546Z,991.94
2019-03-17T01:04:10.535Z,991.94
2019-03-17T01:05:10.512Z,991.90
2019-03-17T01:06:10.509Z,991.94
2019-03-17T01:07:10.488Z,991.89
2019-03-17T01:08:10.510Z,991.82
2019-03-17T01:09:10.475Z,991.83
2019-03-17T01:10:10.462Z,991.86
2019-03-17T01:11:10.446Z,991.82
2019-03-17T01:12:10.440Z,991.81
2019-03-17T01:13:10.427Z,991.83
2019-03-17T01:14:10.445Z,991.79
2019-03-17T01:16:09.397Z,991.72
2019-03-17T01:17:10.408Z,991.70
2019-03-17T01:18:10.390Z,991.66
2019-03-17T01:19:10.370Z,991.69
2019-03-17T01:20:10.562Z,991.65
2019-03-17T01:21:10.336Z,991.66
2019-03-17T01:22:10.322Z,991.66
2019-03-17T01:23:10.314Z,991.64
2019-03-17T01:24:10.991Z,991.67
2019-03-17T01:25:10.294Z,991.73
2019-03-17T01:26:10.286Z,991.68
2019-03-17T01:27:10.270Z,991.74
2019-03-17T01:28:10.260Z,991.67
2019-03-17T01:29:10.258Z,991.64
2019-03-17T01:30:10.272Z,991.59
2019-03-17T01:31:10.238Z,991.57
2019-03-17T01:32:10.220Z,991.56
2019-03-17T01:33:10.207Z,991.53
2019-03-17T01:34:10.196Z,991.57
2019-03-17T01:35:10.456Z,991.53
2019-03-17T01:36:12.991Z,991.45
2019-03-17T01:37:10.170Z,991.47
2019-03-17T01:38:10.152Z,991.43
2019-03-17T01:39:10.142Z,991.43
2019-03-17T01:40:10.140Z,991.42
2019-03-17T01:41:10.159Z,991.38
2019-03-17T01:42:10.121Z,991.36
2019-03-17T01:43:10.098Z,991.34
2019-03-17T01:44:10.087Z,991.36
2019-03-17T01:45:10.074Z,991.36
2019-03-17T01:46:10.066Z,991.34
2019-03-17T01:47:10.088Z,991.33
2019-03-17T01:48:10.047Z,991.30
2019-03-17T01:49:10.046Z,991.27
2019-03-17T01:50:10.015Z,991.25
2019-03-17T01:51:10.008Z,991.19
2019-03-17T01:52:09.997Z,991.17
2019-03-17T01:53:10.036Z,991.16
2019-03-17T01:54:09.975Z,991.13
2019-03-17T01:55:09.963Z,991.11
2019-03-17T01:56:09.960Z,991.09
2019-03-17T01:57:09.939Z,991.05
2019-03-17T01:58:09.943Z,991.05
2019-03-17T01:59:09.949Z,991.04
2019-03-17T02:00:09.919Z,991.08
2019-03-17T02:01:11.841Z,991.03
2019-03-17T02:02:09.893Z,991.07
2019-03-17T02:03:09.886Z,990.98
2019-03-17T02:04:09.866Z,990.98
2019-03-17T02:05:21.233Z,990.99
2019-03-17T02:06:09.844Z,990.96
2019-03-17T02:07:12.474Z,990.97
2019-03-17T02:08:09.860Z,990.96
2019-03-17T02:09:09.822Z,990.90
2019-03-17T02:10:09.799Z,990.93
2019-03-17T02:11:09.793Z,990.89
2019-03-17T02:12:09.778Z,990.89
2019-03-17T02:13:09.801Z,990.80
2019-03-17T02:14:09.763Z,990.87
2019-03-17T02:15:09.749Z,990.83
2019-03-17T02:16:09.732Z,990.82
2019-03-17T02:17:09.768Z,990.79
2019-03-17T02:18:09.711Z,990.75
2019-03-17T02:19:09.735Z,990.72
2019-03-17T02:20:09.693Z,990.72
2019-03-17T02:21:09.678Z,990.71
2019-03-17T02:22:09.673Z,990.71
2019-03-17T02:23:09.653Z,990.68
2019-03-17T02:24:12.474Z,990.74
2019-03-17T02:25:09.629Z,990.79
2019-03-17T02:26:09.619Z,990.80
2019-03-17T02:27:10.015Z,990.76
2019-03-17T02:28:09.597Z,990.72
2019-03-17T02:29:09.623Z,990.71
2019-03-17T02:30:09.582Z,990.72
2019-03-17T02:31:09.572Z,990.72
2019-03-17T02:32:09.558Z,990.71
2019-03-17T02:33:09.558Z,990.71
2019-03-17T02:34:11.883Z,990.71
2019-03-17T02:35:09.531Z,990.73
2019-03-17T02:36:09.515Z,990.68
2019-03-17T02:37:09.505Z,990.67
2019-03-17T02:38:09.493Z,990.68
2019-03-17T02:39:09.503Z,990.67
2019-03-17T02:40:09.479Z,990.69
2019-03-17T02:41:09.463Z,990.64
2019-03-17T02:42:09.530Z,990.65
2019-03-17T02:43:09.445Z,990.62
2019-03-17T02:44:09.422Z,990.58
2019-03-17T02:45:09.455Z,990.64
2019-03-17T02:46:09.960Z,990.61
2019-03-17T02:47:09.398Z,990.62
2019-03-17T02:48:09.383Z,990.53
2019-03-17T02:49:09.371Z,990.57
2019-03-17T02:50:09.386Z,990.56
2019-03-17T02:51:09.343Z,990.50
2019-03-17T02:52:09.352Z,990.51
2019-03-17T02:53:09.329Z,990.45
2019-03-17T02:54:09.313Z,990.46
2019-03-17T02:55:09.317Z,990.43
2019-03-17T02:56:09.296Z,990.43
2019-03-17T02:57:09.283Z,990.40
2019-03-17T02:58:09.270Z,990.46
2019-03-17T02:59:09.256Z,990.48
2019-03-17T03:00:09.266Z,990.49
2019-03-17T03:01:09.242Z,990.47
2019-03-17T03:02:09.233Z,990.47
2019-03-17T03:03:09.262Z,990.48
2019-03-17T03:04:09.232Z,990.41
2019-03-17T03:05:09.193Z,990.44
2019-03-17T03:06:09.192Z,990.42
2019-03-17T03:07:09.175Z,990.39
2019-03-17T03:08:09.165Z,990.41
2019-03-17T03:09:09.158Z,990.38
2019-03-17T03:10:09.164Z,990.38
2019-03-17T03:11:09.139Z,990.35
2019-03-17T03:12:09.117Z,990.33
2019-03-17T03:13:09.958Z,990.36
2019-03-17T03:14:09.097Z,990.34
2019-03-17T03:15:09.094Z,990.34
2019-03-17T03:16:09.080Z,990.38
2019-03-17T03:17:09.058Z,990.33
2019-03-17T03:18:09.047Z,990.30
2019-03-17T03:19:11.960Z,990.33
2019-03-17T03:20:09.057Z,990.28
2019-03-17T03:21:09.027Z,990.30
2019-03-17T03:22:09.006Z,990.25
2019-03-17T03:23:08.998Z,990.29
2019-03-17T03:24:08.988Z,990.23
2019-03-17T03:25:09.036Z,990.21
2019-03-17T03:26:08.964Z,990.20
2019-03-17T03:27:08.951Z,990.15
2019-03-17T03:28:08.947Z,990.18
2019-03-17T03:29:08.931Z,990.17
2019-03-17T03:30:08.937Z,990.16
2019-03-17T03:31:08.927Z,990.17
2019-03-17T03:32:08.896Z,990.13
2019-03-17T03:33:08.884Z,990.14
2019-03-17T03:34:08.876Z,990.14
2019-03-17T03:35:08.903Z,990.08
2019-03-17T03:36:11.475Z,990.09
2019-03-17T03:37:08.878Z,990.03
2019-03-17T03:38:08.830Z,990.04
2019-03-17T03:39:08.817Z,990.00
2019-03-17T03:40:08.815Z,990.00
2019-03-17T03:41:08.815Z,989.96
2019-03-17T03:42:09.452Z,989.96
2019-03-17T03:43:08.811Z,989.93
2019-03-17T03:44:08.767Z,989.94
2019-03-17T03:45:08.755Z,989.91
2019-03-17T03:46:08.741Z,989.85
2019-03-17T03:47:08.769Z,989.86
2019-03-17T03:48:08.741Z,989.86
2019-03-17T03:49:08.770Z,989.82
2019-03-17T03:50:08.705Z,989.76
2019-03-17T03:51:08.708Z,989.74
2019-03-17T03:52:08.681Z,989.73
2019-03-17T03:53:08.686Z,989.71
2019-03-17T03:54:08.658Z,989.69
2019-03-17T03:55:08.688Z,989.66
2019-03-17T03:56:08.643Z,989.69
2019-03-17T03:57:08.673Z,989.70
2019-03-17T03:58:08.615Z,989.68
2019-03-17T03:59:08.600Z,989.65
2019-03-17T04:00:08.590Z,989.61
2019-03-17T04:01:08.580Z,989.63
2019-03-17T04:02:08.607Z,989.61
2019-03-17T04:03:08.574Z,989.65
2019-03-17T04:04:08.550Z,989.61
2019-03-17T04:05:09.443Z,989.54
2019-03-17T04:06:08.541Z,989.58
2019-03-17T04:07:08.516Z,989.51
2019-03-17T04:08:08.532Z,989.51
2019-03-17T04:09:08.493Z,989.55
2019-03-17T04:10:08.482Z,989.54
2019-03-17T04:11:08.470Z,989.51
2019-03-17T04:12:08.471Z,989.47
2019-03-17T04:13:08.453Z,989.45
2019-03-17T04:14:08.461Z,989.46
2019-03-17T04:15:08.434Z,989.42
2019-03-17T04:16:08.417Z,989.46
2019-03-17T04:17:08.403Z,989.44
2019-03-17T04:18:08.392Z,989.41
2019-03-17T04:19:08.385Z,989.37
2019-03-17T04:20:08.385Z,989.38
2019-03-17T04:21:08.367Z,989.38
2019-03-17T04:22:08.373Z,989.27
2019-03-17T04:23:08.343Z,989.26
2019-03-17T04:24:08.322Z,989.27
2019-03-17T04:25:08.352Z,989.22
2019-03-17T04:26:08.346Z,989.20
2019-03-17T04:27:08.330Z,989.20
2019-03-17T04:28:08.284Z,989.16
2019-03-17T04:29:08.281Z,989.13
2019-03-17T04:30:08.260Z,989.12
2019-03-17T04:31:08.327Z,989.07
2019-03-17T04:32:08.237Z,989.05
2019-03-17T04:33:08.231Z,989.06
2019-03-17T04:34:08.248Z,989.03
2019-03-17T04:35:08.202Z,989.02
2019-03-17T04:36:08.197Z,989.00
2019-03-17T04:37:08.929Z,989.02
2019-03-17T04:38:08.177Z,989.02
2019-03-17T04:39:08.167Z,989.03
2019-03-17T04:40:08.220Z,989.02
2019-03-17T04:41:08.147Z,989.03
2019-03-17T04:42:08.135Z,989.00
2019-03-17T04:43:08.127Z,988.96
2019-03-17T04:44:20.017Z,989.01
2019-03-17T04:45:08.119Z,989.02
2019-03-17T04:46:08.085Z,988.95
2019-03-17T04:47:08.073Z,988.95
2019-03-17T04:48:08.069Z,988.97
2019-03-17T04:49:08.061Z,988.93
2019-03-17T04:50:08.047Z,988.91
2019-03-17T04:51:08.032Z,988.86
2019-03-17T04:52:08.021Z,988.88
2019-03-17T04:53:08.034Z,988.86
2019-03-17T04:54:07.993Z,988.84
2019-03-17T04:55:07.985Z,988.84
2019-03-17T04:56:07.980Z,988.84
2019-03-17T04:57:07.973Z,988.79
2019-03-17T04:58:07.983Z,988.79
2019-03-17T04:59:07.948Z,988.79
2019-03-17T05:00:07.935Z,988.78
2019-03-17T05:01:07.923Z,988.77
2019-03-17T05:02:08.425Z,988.81
2019-03-17T05:03:07.935Z,988.80
2019-03-17T05:04:07.899Z,988.76
2019-03-17T05:05:07.881Z,988.75
2019-03-17T05:06:07.869Z,988.77
2019-03-17T05:07:07.858Z,988.73
2019-03-17T05:08:07.849Z,988.72
2019-03-17T05:09:07.869Z,988.69
2019-03-17T05:10:07.825Z,988.68
2019-03-17T05:11:07.815Z,988.68
2019-03-17T05:12:07.805Z,988.63
2019-03-17T05:13:07.795Z,988.70
2019-03-17T05:14:07.787Z,988.69
2019-03-17T05:15:07.782Z,988.63
2019-03-17T05:16:07.762Z,988.64
2019-03-17T05:17:07.753Z,988.62
2019-03-17T05:18:07.742Z,988.59
2019-03-17T05:19:07.729Z,988.54
2019-03-17T05:20:07.723Z,988.53
2019-03-17T05:21:07.721Z,988.54
2019-03-17T05:22:07.725Z,988.52
2019-03-17T05:23:07.683Z,988.48
2019-03-17T05:24:07.677Z,988.49
2019-03-17T05:25:07.668Z,988.54
2019-03-17T05:26:07.709Z,988.47
2019-03-17T05:27:07.647Z,988.47
2019-03-17T05:28:07.635Z,988.45
2019-03-17T05:29:07.627Z,988.48
2019-03-17T05:30:07.621Z,988.42
2019-03-17T05:31:07.606Z,988.39
2019-03-17T05:32:07.622Z,988.48
2019-03-17T05:33:07.576Z,988.47
2019-03-17T05:34:07.565Z,988.46
2019-03-17T05:35:07.564Z,988.44
2019-03-17T05:36:07.554Z,988.42
2019-03-17T05:37:07.533Z,988.40
2019-03-17T05:38:07.548Z,988.44
2019-03-17T05:39:07.514Z,988.42
2019-03-17T05:40:07.511Z,988.38
2019-03-17T05:41:07.489Z,988.37
2019-03-17T05:42:07.486Z,988.37
2019-03-17T05:43:07.483Z,988.38
2019-03-17T05:44:07.464Z,988.39
2019-03-17T05:45:07.448Z,988.40
2019-03-17T05:46:07.443Z,988.40
2019-03-17T05:47:07.429Z,988.39
2019-03-17T05:48:07.418Z,988.37
2019-03-17T05:49:07.405Z,988.41
2019-03-17T05:50:07.403Z,988.44
2019-03-17T05:51:07.382Z,988.46
2019-03-17T05:52:07.418Z,988.47
2019-03-17T05:53:07.364Z,988.41
2019-03-17T05:54:07.353Z,988.45
2019-03-17T05:55:07.339Z,988.47
2019-03-17T05:56:07.332Z,988.42
2019-03-17T05:57:07.322Z,988.42
2019-03-17T05:58:07.330Z,988.43
2019-03-17T05:59:07.304Z,988.42
2019-03-17T06:00:07.284Z,988.41
2019-03-17T06:01:07.278Z,988.41
2019-03-17T06:02:07.267Z,988.42
2019-03-17T06:03:07.276Z,988.44
2019-03-17T06:04:07.248Z,988.38
2019-03-17T06:05:07.235Z,988.33
2019-03-17T06:07:17.663Z,988.31
2019-03-17T06:08:07.233Z,988.32
2019-03-17T06:09:07.200Z,988.30
2019-03-17T06:10:07.175Z,988.27
2019-03-17T06:11:07.175Z,988.29
2019-03-17T06:12:07.178Z,988.29
2019-03-17T06:13:09.902Z,988.27
2019-03-17T06:14:07.136Z,988.25
2019-03-17T06:15:07.122Z,988.26
2019-03-17T06:16:07.111Z,988.23
2019-03-17T06:17:07.108Z,988.32
2019-03-17T06:18:07.094Z,988.30
2019-03-17T06:19:07.115Z,988.24
2019-03-17T06:20:07.072Z,988.23
2019-03-17T06:21:07.055Z,988.24
2019-03-17T06:22:07.054Z,988.29
2019-03-17T06:23:07.038Z,988.28
2019-03-17T06:24:07.062Z,988.27
2019-03-17T06:25:07.020Z,988.35
2019-03-17T06:26:07.005Z,988.34
2019-03-17T06:27:06.997Z,988.33
2019-03-17T06:28:06.981Z,988.30
2019-03-17T06:29:06.982Z,988.26
2019-03-17T06:30:06.990Z,988.27
2019-03-17T06:31:06.950Z,988.23
2019-03-17T06:32:06.942Z,988.19
2019-03-17T06:33:06.933Z,988.13
2019-03-17T06:34:06.920Z,988.15
2019-03-17T06:35:06.904Z,988.18
2019-03-17T06:36:07.398Z,988.21
2019-03-17T06:37:06.885Z,988.24
2019-03-17T06:38:06.882Z,988.21
2019-03-17T06:39:06.887Z,988.15
2019-03-17T06:40:06.858Z,988.19
2019-03-17T06:41:06.850Z,988.12
2019-03-17T06:42:06.840Z,988.14
2019-03-17T06:43:06.828Z,988.18
2019-03-17T06:44:06.808Z,988.20
2019-03-17T06:45:06.803Z,988.16
2019-03-17T06:47:06.081Z,988.24
2019-03-17T06:48:06.774Z,988.22
2019-03-17T06:49:06.784Z,988.24
2019-03-17T06:50:06.750Z,988.18
2019-03-17T06:51:06.730Z,988.14
2019-03-17T06:52:06.728Z,988.16
2019-03-17T06:53:06.721Z,988.17
2019-03-17T06:55:05.718Z,988.14
2019-03-17T06:56:06.683Z,988.13
2019-03-17T06:57:06.670Z,988.19
2019-03-17T06:58:06.662Z,988.08
2019-03-17T06:59:06.654Z,988.05
2019-03-17T07:00:06.640Z,988.09
2019-03-17T07:01:06.629Z,988.08
2019-03-17T07:02:06.618Z,988.08
2019-03-17T07:03:06.611Z,988.13
2019-03-17T07:04:06.595Z,988.10
2019-03-17T07:05:06.626Z,988.11
2019-03-17T07:06:06.607Z,988.11
2019-03-17T07:07:06.570Z,988.09
2019-03-17T07:08:09.388Z,988.04
2019-03-17T07:09:06.544Z,988.06
2019-03-17T07:10:06.535Z,988.03
2019-03-17T07:11:06.524Z,988.01
2019-03-17T07:12:06.541Z,988.04
2019-03-17T07:13:06.495Z,988.04
2019-03-17T07:14:06.486Z,987.97
2019-03-17T07:15:06.489Z,987.97
2019-03-17T07:16:06.469Z,987.94
2019-03-17T07:17:06.452Z,988.00
2019-03-17T07:18:06.445Z,987.92
2019-03-17T07:19:06.432Z,987.98
2019-03-17T07:20:06.470Z,987.89
2019-03-17T07:21:06.445Z,987.83
2019-03-17T07:22:06.400Z,987.87
2019-03-17T07:23:06.394Z,987.88
2019-03-17T07:24:06.378Z,987.81
2019-03-17T07:25:06.366Z,987.82
2019-03-17T07:26:06.378Z,987.84
2019-03-17T07:27:06.352Z,987.72
2019-03-17T07:28:06.341Z,987.78
2019-03-17T07:29:06.333Z,987.75
2019-03-17T07:30:06.402Z,987.72
2019-03-17T07:31:06.300Z,987.76
2019-03-17T07:32:06.297Z,987.71
2019-03-17T07:33:06.272Z,987.73
2019-03-17T07:34:06.267Z,987.77
2019-03-17T07:35:06.257Z,987.79
2019-03-17T07:36:06.249Z,987.79
2019-03-17T07:37:06.277Z,987.81
2019-03-17T07:38:06.224Z,987.83
2019-03-17T07:39:11.761Z,987.84
2019-03-17T07:40:06.226Z,987.81
2019-03-17T07:41:06.193Z,987.85
2019-03-17T07:42:06.179Z,987.90
2019-03-17T07:43:06.199Z,987.90
2019-03-17T07:44:06.154Z,987.96
2019-03-17T07:45:06.150Z,987.91
2019-03-17T07:46:06.138Z,987.96
2019-03-17T07:47:06.878Z,987.99
2019-03-17T07:48:06.118Z,987.94
2019-03-17T07:49:06.128Z,987.93
2019-03-17T07:50:06.882Z,987.93
2019-03-17T07:51:06.078Z,987.85
2019-03-17T07:52:06.074Z,987.92
2019-03-17T07:53:06.093Z,987.94
2019-03-17T07:54:06.043Z,988.00
2019-03-17T07:55:06.036Z,987.96
2019-03-17T07:56:06.028Z,987.94
2019-03-17T07:57:06.008Z,987.92
2019-03-17T07:58:06.002Z,987.91
2019-03-17T07:59:06.030Z,987.91
2019-03-17T08:00:05.979Z,987.87
2019-03-17T08:01:06.008Z,987.88
2019-03-17T08:02:05.955Z,987.86
2019-03-17T08:03:05.949Z,987.87
2019-03-17T08:04:05.940Z,987.86
2019-03-17T08:05:05.922Z,987.86
2019-03-17T08:06:05.926Z,987.85
2019-03-17T08:07:05.900Z,987.81
2019-03-17T08:08:09.807Z,987.76
2019-03-17T08:09:05.904Z,987.79
2019-03-17T08:10:05.864Z,987.80
2019-03-17T08:11:05.863Z,987.82
2019-03-17T08:12:05.848Z,987.82
2019-03-17T08:13:05.868Z,987.81
2019-03-17T08:14:05.820Z,987.80
2019-03-17T08:15:05.810Z,987.77
2019-03-17T08:16:05.804Z,987.72
2019-03-17T08:17:05.788Z,987.79
2019-03-17T08:18:05.788Z,987.79
2019-03-17T08:19:05.796Z,987.91
2019-03-17T08:20:05.761Z,987.88
2019-03-17T08:21:05.754Z,987.86
2019-03-17T08:22:05.738Z,987.78
2019-03-17T08:23:05.777Z,987.85
2019-03-17T08:24:05.711Z,987.85
2019-03-17T08:25:05.710Z,987.92
2019-03-17T08:26:08.369Z,987.98
2019-03-17T08:27:05.690Z,987.94
2019-03-17T08:28:05.670Z,987.99
2019-03-17T08:29:05.658Z,988.03
2019-03-17T08:30:05.654Z,987.94
2019-03-17T08:31:05.664Z,988.06
2019-03-17T08:32:05.627Z,987.93
2019-03-17T08:33:05.617Z,987.93
2019-03-17T08:34:05.605Z,987.93
2019-03-17T08:35:05.653Z,987.86
2019-03-17T08:36:05.581Z,987.76
2019-03-17T08:37:05.604Z,987.77
2019-03-17T08:38:05.568Z,987.80
2019-03-17T08:39:05.582Z,987.80
2019-03-17T08:40:05.540Z,987.76
2019-03-17T08:41:05.522Z,987.67
2019-03-17T08:42:05.514Z,987.72
2019-03-17T08:43:05.505Z,987.73
2019-03-17T08:44:05.491Z,987.71
2019-03-17T08:45:05.515Z,987.78
2019-03-17T08:46:05.501Z,987.77
2019-03-17T08:47:05.459Z,987.73
2019-03-17T08:48:05.452Z,987.75
2019-03-17T08:49:05.436Z,987.75
2019-03-17T08:50:05.427Z,987.75
2019-03-17T08:51:05.448Z,987.73
2019-03-17T08:52:05.409Z,987.81
2019-03-17T08:53:05.415Z,987.80
2019-03-17T08:54:05.389Z,987.70
2019-03-17T08:55:05.377Z,987.70
2019-03-17T08:56:05.370Z,987.89
2019-03-17T08:57:05.386Z,987.79
2019-03-17T08:58:05.336Z,987.81
2019-03-17T08:59:05.335Z,987.84
2019-03-17T09:00:05.331Z,987.88
2019-03-17T09:01:05.327Z,987.78
2019-03-17T09:02:05.325Z,987.77
2019-03-17T09:03:05.287Z,987.65
2019-03-17T09:04:05.271Z,987.94
2019-03-17T09:05:05.269Z,987.72
2019-03-17T09:06:05.265Z,987.89
2019-03-17T09:07:05.247Z,987.82
2019-03-17T09:08:05.235Z,987.89
2019-03-17T09:09:05.216Z,987.84
2019-03-17T09:10:05.210Z,987.99
2019-03-17T09:11:05.199Z,987.96
2019-03-17T09:12:05.218Z,988.06
2019-03-17T09:13:05.170Z,987.96
2019-03-17T09:14:05.162Z,987.91
2019-03-17T09:15:05.143Z,987.95
2019-03-17T09:16:05.153Z,988.02
2019-03-17T09:18:04.134Z,987.98
2019-03-17T09:19:05.859Z,988.02
2019-03-17T09:20:05.098Z,988.14
2019-03-17T09:21:07.851Z,987.97
2019-03-17T09:22:05.076Z,988.09
2019-03-17T09:23:05.070Z,988.12
2019-03-17T09:24:16.534Z,988.10
2019-03-17T09:25:05.044Z,988.13
2019-03-17T09:26:05.025Z,988.24
2019-03-17T09:27:05.034Z,988.12
2019-03-17T09:28:05.008Z,988.24
2019-03-17T09:29:05.030Z,988.12
2019-03-17T09:30:04.989Z,988.24
2019-03-17T09:31:07.490Z,988.25
2019-03-17T09:32:04.991Z,988.26
2019-03-17T09:33:04.959Z,988.16
2019-03-17T09:34:04.943Z,988.26
2019-03-17T09:35:04.928Z,988.32
2019-03-17T09:36:04.923Z,988.18
2019-03-17T09:37:04.903Z,988.48
2019-03-17T09:38:04.916Z,988.39
2019-03-17T09:39:04.891Z,988.36
2019-03-17T09:40:04.882Z,988.29
2019-03-17T09:41:04.868Z,988.16
2019-03-17T09:42:04.855Z,988.28
2019-03-17T09:43:04.848Z,988.30
2019-03-17T09:44:04.827Z,988.30
2019-03-17T09:45:05.351Z,988.29
2019-03-17T09:46:04.808Z,988.31
2019-03-17T09:47:04.794Z,988.16
2019-03-17T09:48:04.799Z,988.23
2019-03-17T09:49:04.780Z,988.21
2019-03-17T09:50:04.760Z,988.20
2019-03-17T09:51:04.798Z,988.15
2019-03-17T09:52:04.741Z,988.15
2019-03-17T09:53:05.347Z,988.25
2019-03-17T09:54:04.723Z,988.23
2019-03-17T09:55:04.712Z,988.18
2019-03-17T09:56:04.693Z,988.28
2019-03-17T09:57:04.725Z,988.06
2019-03-17T09:58:04.679Z,988.13
2019-03-17T09:59:04.698Z,988.02
2019-03-17T10:00:04.683Z,988.08
2019-03-17T10:01:04.642Z,988.08
2019-03-17T10:02:04.637Z,987.97
2019-03-17T10:03:05.339Z,988.00
2019-03-17T10:04:04.643Z,988.10
2019-03-17T10:05:04.595Z,987.99
2019-03-17T10:06:04.591Z,987.96
2019-03-17T10:07:04.579Z,987.97
2019-03-17T10:08:04.567Z,988.04
2019-03-17T10:09:04.551Z,987.87
2019-03-17T10:10:04.578Z,987.93
2019-03-17T10:11:04.544Z,987.89
2019-03-17T10:12:04.513Z,987.80
2019-03-17T10:13:04.511Z,987.94
2019-03-17T10:14:04.501Z,987.88
2019-03-17T10:15:04.523Z,987.87
2019-03-17T10:16:04.479Z,987.87
2019-03-17T10:17:04.465Z,987.80
2019-03-17T10:18:04.465Z,987.93
2019-03-17T10:19:04.454Z,987.76
2019-03-17T10:20:04.434Z,987.70
2019-03-17T10:21:04.458Z,987.83
2019-03-17T10:22:04.411Z,987.92
2019-03-17T10:23:04.403Z,987.85
2019-03-17T10:24:04.395Z,987.83
2019-03-17T10:25:04.393Z,987.85
2019-03-17T10:26:04.367Z,987.88
2019-03-17T10:27:04.365Z,987.84
2019-03-17T10:28:04.352Z,987.85
2019-03-17T10:29:04.339Z,987.90
2019-03-17T10:30:04.325Z,987.87
2019-03-17T10:31:04.323Z,987.91
2019-03-17T10:32:04.312Z,987.97
2019-03-17T10:33:04.292Z,987.94
2019-03-17T10:34:06.837Z,987.93
2019-03-17T10:35:04.271Z,987.91
2019-03-17T10:36:04.262Z,987.94
2019-03-17T10:37:04.839Z,987.90
2019-03-17T10:38:04.247Z,987.89
2019-03-17T10:39:12.291Z,987.80
2019-03-17T10:40:04.219Z,987.91
2019-03-17T10:41:04.197Z,987.91
2019-03-17T10:42:04.188Z,987.95
2019-03-17T10:43:04.181Z,987.94
2019-03-17T10:44:04.207Z,987.92
2019-03-17T10:45:04.161Z,988.02
2019-03-17T10:46:04.151Z,987.93
2019-03-17T10:47:04.137Z,987.94
2019-03-17T10:48:04.167Z,987.76
2019-03-17T10:49:04.121Z,987.80
2019-03-17T10:50:04.107Z,987.93
2019-03-17T10:51:04.100Z,987.90
2019-03-17T10:52:04.095Z,987.93
2019-03-17T10:53:04.083Z,987.89
2019-03-17T10:54:04.057Z,987.95
2019-03-17T10:55:04.076Z,987.95
2019-03-17T10:56:04.046Z,988.01
2019-03-17T10:57:04.055Z,987.93
2019-03-17T10:58:04.021Z,988.05
2019-03-17T10:59:04.009Z,987.96
2019-03-17T11:00:03.998Z,987.96
2019-03-17T11:01:04.024Z,987.90
2019-03-17T11:02:03.971Z,988.02
2019-03-17T11:03:03.961Z,987.97
2019-03-17T11:04:03.947Z,987.97
2019-03-17T11:05:03.940Z,987.91
2019-03-17T11:06:03.922Z,987.93
2019-03-17T11:07:03.958Z,987.89
2019-03-17T11:08:03.903Z,987.82
2019-03-17T11:09:03.889Z,987.89
2019-03-17T11:10:03.886Z,987.83
2019-03-17T11:11:03.871Z,987.88
2019-03-17T11:12:03.885Z,987.85
2019-03-17T11:13:03.849Z,987.80
2019-03-17T11:14:03.837Z,987.75
2019-03-17T11:15:03.830Z,987.86
2019-03-17T11:16:03.827Z,987.83
2019-03-17T11:17:03.803Z,987.78
2019-03-17T11:18:03.827Z,987.79
2019-03-17T11:19:03.779Z,987.77
2019-03-17T11:20:03.771Z,987.90
2019-03-17T11:21:03.770Z,987.90
2019-03-17T11:22:03.775Z,987.75
2019-03-17T11:23:03.736Z,987.76
2019-03-17T11:24:03.731Z,987.77
2019-03-17T11:25:03.725Z,987.80
2019-03-17T11:26:03.707Z,987.81
2019-03-17T11:27:03.735Z,987.82
2019-03-17T11:28:03.682Z,987.83
2019-03-17T11:29:03.675Z,987.81
2019-03-17T11:30:03.666Z,987.86
2019-03-17T11:31:03.658Z,987.85
2019-03-17T11:32:06.535Z,987.86
2019-03-17T11:33:03.671Z,987.73
2019-03-17T11:34:03.628Z,987.77
2019-03-17T11:35:03.606Z,987.84
2019-03-17T11:36:03.599Z,987.76
2019-03-17T11:37:08.885Z,987.91
2019-03-17T11:38:03.574Z,987.79
2019-03-17T11:39:03.559Z,987.85
2019-03-17T11:40:03.553Z,987.89
2019-03-17T11:41:03.541Z,987.76
2019-03-17T11:42:03.538Z,987.76
2019-03-17T11:43:03.553Z,987.80
2019-03-17T11:44:03.513Z,987.92
2019-03-17T11:45:04.326Z,987.84
2019-03-17T11:46:03.486Z,987.88
2019-03-17T11:47:03.500Z,987.85
2019-03-17T11:48:03.465Z,987.84
2019-03-17T11:49:03.449Z,987.82
2019-03-17T11:50:03.445Z,987.90
2019-03-17T11:51:03.430Z,987.85
2019-03-17T11:52:03.422Z,987.88
2019-03-17T11:53:03.437Z,987.82
2019-03-17T11:54:03.398Z,987.88
2019-03-17T11:55:03.392Z,988.01
2019-03-17T11:56:03.371Z,987.89
2019-03-17T11:57:03.361Z,987.90
2019-03-17T11:58:03.355Z,987.97
2019-03-17T11:59:03.345Z,987.94
2019-03-17T12:00:03.329Z,987.93
2019-03-17T12:01:03.314Z,987.85
2019-03-17T12:02:03.310Z,988.03
2019-03-17T12:03:03.311Z,988.11
2019-03-17T12:04:03.315Z,987.86
2019-03-17T12:05:03.269Z,987.91
2019-03-17T12:06:03.274Z,987.89
2019-03-17T12:07:03.251Z,987.94
2019-03-17T12:08:03.244Z,987.97
2019-03-17T12:09:04.474Z,987.96
2019-03-17T12:10:03.222Z,987.92
2019-03-17T12:11:03.215Z,988.09
2019-03-17T12:12:03.212Z,988.17
2019-03-17T12:13:05.817Z,988.08
2019-03-17T12:14:03.182Z,988.04
2019-03-17T12:15:03.196Z,988.03
2019-03-17T12:16:03.162Z,988.04
2019-03-17T12:17:03.141Z,988.14
2019-03-17T12:18:03.133Z,987.99
2019-03-17T12:19:03.128Z,988.13
2019-03-17T12:20:03.110Z,987.98
2019-03-17T12:21:03.204Z,988.04
2019-03-17T12:22:09.186Z,987.95
2019-03-17T12:23:03.081Z,987.95
2019-03-17T12:24:03.067Z,987.91
2019-03-17T12:25:03.058Z,988.05
2019-03-17T12:26:03.042Z,988.06
2019-03-17T12:27:03.064Z,987.99
2019-03-17T12:28:03.025Z,988.02
2019-03-17T12:29:03.010Z,988.07
2019-03-17T12:30:02.999Z,987.96
2019-03-17T12:31:03.059Z,987.95
2019-03-17T12:32:02.992Z,987.97
2019-03-17T12:33:02.986Z,987.90